Time;durP1;ratioP1;P1;durP2;ratioP2;P2;SDS_P1;SDS_P2;PMS_P1;PMS_P2;Temp;Humidity;BMP_temperature;BMP_pressure;BME280_temperature;BME280_humidity;BME280_pressure;Samples;Min_cycle;Max_cycle;Signal;HPM_P1;HPM_P2
2021/10/16 00:00:39;;;;;;;6.70;1.92;;;9.40;99.90;;;;;;4995620;28;20049;-62
2021/10/16 00:03:04;;;;;;;8.68;2.17;;;9.40;99.90;;;;;;5020234;28;20465;-61
2021/10/16 00:05:30;;;;;;;6.65;1.83;;;9.50;99.90;;;;;;5020509;28;20058;-62
2021/10/16 00:07:56;;;;;;;14.02;3.13;;;9.50;99.90;;;;;;5023430;28;20029;-62
2021/10/16 00:10:22;;;;;;;10.95;2.17;;;9.50;99.90;;;;;;5021177;28;20038;-61
2021/10/16 00:12:48;;;;;;;9.13;1.73;;;9.50;99.90;;;;;;5022692;28;20034;-62
2021/10/16 00:15:14;;;;;;;9.07;2.25;;;9.50;99.90;;;;;;5022567;28;20036;-62
2021/10/16 00:17:39;;;;;;;7.22;2.33;;;9.50;99.90;;;;;;5023618;28;20112;-61
2021/10/16 00:20:07;;;;;;;7.38;2.28;;;9.60;99.90;;;;;;5021075;28;20133;-62
2021/10/16 00:22:33;;;;;;;9.73;2.78;;;9.60;99.90;;;;;;5023748;28;20103;-61
2021/10/16 00:24:59;;;;;;;10.25;2.17;;;9.60;99.90;;;;;;5022746;28;20407;-62
2021/10/16 00:27:24;;;;;;;7.38;2.10;;;9.60;99.90;;;;;;5024302;28;20029;-62
2021/10/16 00:29:50;;;;;;;7.47;1.67;;;9.60;99.90;;;;;;5022741;28;20042;-62
2021/10/16 00:32:15;;;;;;;9.10;1.70;;;9.60;99.90;;;;;;5018441;28;20038;-62
2021/10/16 00:34:41;;;;;;;7.95;2.10;;;9.60;99.90;;;;;;5021988;28;20046;-61
2021/10/16 00:37:07;;;;;;;6.85;1.85;;;9.60;99.90;;;;;;5020939;28;20029;-62
2021/10/16 00:39:32;;;;;;;5.82;1.58;;;9.60;99.90;;;;;;5023560;28;20053;-62
2021/10/16 00:41:58;;;;;;;7.72;2.20;;;9.70;99.90;;;;;;5019607;28;20054;-62
2021/10/16 00:44:25;;;;;;;10.63;2.08;;;9.70;99.90;;;;;;5022114;28;20034;-61
2021/10/16 00:46:59;;;;;;;12.40;2.63;;;9.70;99.90;;;;;;5002170;28;20058;-62
2021/10/16 00:49:26;;;;;;;7.03;1.88;;;9.70;99.90;;;;;;5023165;28;20070;-61
2021/10/16 00:51:52;;;;;;;9.75;2.70;;;9.70;99.90;;;;;;5015784;28;20034;-61
2021/10/16 00:54:23;;;;;;;14.07;2.10;;;9.70;99.90;;;;;;5006019;28;20045;-61
2021/10/16 00:56:52;;;;;;;10.32;2.20;;;9.70;99.90;;;;;;5020188;28;20073;-61
2021/10/16 00:59:19;;;;;;;14.95;2.60;;;9.80;99.90;;;;;;5020994;28;20033;-62
2021/10/16 01:01:45;;;;;;;4.38;1.73;;;9.70;99.90;;;;;;5023432;28;20037;-61
2021/10/16 01:04:10;;;;;;;8.88;1.63;;;9.80;99.90;;;;;;5019756;28;20080;-63
2021/10/16 01:06:37;;;;;;;4.18;1.77;;;9.80;99.90;;;;;;5016607;28;20030;-61
2021/10/16 01:09:08;;;;;;;7.85;1.85;;;9.80;99.90;;;;;;5018900;28;20096;-61
2021/10/16 01:11:38;;;;;;;;;;;9.80;99.90;;;;;;5022980;28;20064;-62
2021/10/16 01:14:09;;;;;;;4.53;1.60;;;9.80;99.90;;;;;;5020207;28;19957;-61
2021/10/16 01:16:35;;;;;;;10.18;1.33;;;9.80;99.90;;;;;;5022060;28;20280;-61
2021/10/16 01:19:05;;;;;;;4.78;1.70;;;9.80;99.90;;;;;;5019608;28;20034;-61
2021/10/16 01:21:32;;;;;;;3.75;1.55;;;9.80;99.90;;;;;;5022502;28;20038;-66
2021/10/16 01:23:59;;;;;;;6.25;2.22;;;9.90;99.90;;;;;;5019188;28;20501;-61
2021/10/16 01:26:29;;;;;;;8.45;2.28;;;9.80;99.90;;;;;;5023288;28;20113;-62
2021/10/16 01:28:59;;;;;;;4.82;1.88;;;9.80;99.90;;;;;;5018827;28;20038;-62
2021/10/16 01:31:26;;;;;;;8.73;2.22;;;9.80;99.90;;;;;;5019352;28;20505;-63
2021/10/16 01:33:51;;;;;;;5.95;2.20;;;9.90;99.90;;;;;;5018843;28;20030;-62
2021/10/16 01:36:17;;;;;;;5.53;1.90;;;9.80;99.90;;;;;;4976102;28;20045;-63
2021/10/16 01:38:43;;;;;;;11.68;2.03;;;9.80;99.90;;;;;;4998789;28;20561;-63
2021/10/16 01:41:08;;;;;;;13.00;2.08;;;9.90;99.90;;;;;;4997044;28;20052;-63
2021/10/16 01:43:34;;;;;;;8.05;1.75;;;9.80;99.90;;;;;;4993843;28;20050;-62
2021/10/16 01:45:59;;;;;;;9.05;2.15;;;9.90;99.90;;;;;;5021943;28;20760;-62
2021/10/16 01:48:26;;;;;;;6.13;2.03;;;9.90;99.90;;;;;;4997103;28;20037;-63
2021/10/16 01:50:53;;;;;;;11.98;2.63;;;9.90;99.90;;;;;;4992677;28;20046;-62
2021/10/16 01:53:19;;;;;;;10.60;2.25;;;9.90;99.90;;;;;;5025015;28;20034;-64
2021/10/16 01:55:45;;;;;;;12.18;1.92;;;9.90;99.90;;;;;;5020984;28;20068;-64
2021/10/16 01:58:14;;;;;;;7.93;1.80;;;9.90;99.90;;;;;;4995705;28;20045;-63
2021/10/16 02:00:44;;;;;;;11.07;3.22;;;9.90;99.90;;;;;;5018739;28;20397;-61
2021/10/16 02:03:13;;;;;;;7.32;1.88;;;9.90;99.90;;;;;;4995182;28;20038;-63
2021/10/16 02:05:42;;;;;;;5.32;1.98;;;9.90;99.90;;;;;;5019540;28;20045;-63
2021/10/16 02:08:09;;;;;;;8.20;2.03;;;9.90;99.90;;;;;;5019980;28;20099;-63
2021/10/16 02:10:35;;;;;;;12.32;2.30;;;9.90;99.90;;;;;;5020724;28;20386;-63
2021/10/16 02:13:01;;;;;;;9.85;2.60;;;9.90;99.90;;;;;;4995857;28;20394;-64
2021/10/16 02:15:26;;;;;;;10.98;2.70;;;9.90;99.90;;;;;;5021842;28;20029;-63
2021/10/16 02:17:52;;;;;;;9.55;2.03;;;9.90;99.90;;;;;;5018309;28;20417;-65
2021/10/16 02:20:17;;;;;;;6.43;2.03;;;9.90;99.90;;;;;;4974633;28;20103;-62
2021/10/16 02:22:43;;;;;;;7.57;2.20;;;9.90;99.90;;;;;;5018854;28;20083;-64
2021/10/16 02:25:09;;;;;;;11.27;2.38;;;9.90;99.90;;;;;;5020246;28;20037;-63
2021/10/16 02:27:34;;;;;;;9.18;2.40;;;9.90;99.90;;;;;;5020520;28;20452;-64
2021/10/16 02:30:00;;;;;;;9.27;2.92;;;9.90;99.90;;;;;;5000586;28;20041;-63
2021/10/16 02:32:25;;;;;;;8.18;2.63;;;9.90;99.90;;;;;;5021658;28;20034;-65
2021/10/16 02:34:51;;;;;;;5.30;1.70;;;9.90;99.90;;;;;;5021247;28;20037;-62
2021/10/16 02:37:16;;;;;;;8.32;2.30;;;9.90;99.90;;;;;;5020385;28;20034;-62
2021/10/16 02:39:42;;;;;;;6.43;2.30;;;9.90;99.90;;;;;;5017768;28;20116;-64
2021/10/16 02:42:08;;;;;;;7.90;1.95;;;9.90;99.90;;;;;;5019773;28;20386;-62
2021/10/16 02:44:34;;;;;;;12.57;2.72;;;9.90;99.90;;;;;;5019782;28;20026;-63
2021/10/16 02:47:00;;;;;;;7.03;2.88;;;9.90;99.90;;;;;;5001046;28;20498;-64
2021/10/16 02:49:25;;;;;;;7.57;2.17;;;9.90;99.90;;;;;;5019995;28;20061;-62
2021/10/16 02:51:51;;;;;;;8.88;2.22;;;9.80;99.90;;;;;;5017763;28;20459;-63
2021/10/16 02:54:16;;;;;;;10.30;2.03;;;9.90;99.90;;;;;;5024693;28;20609;-62
2021/10/16 02:56:42;;;;;;;15.70;3.95;;;9.90;99.90;;;;;;5020457;28;20359;-64
2021/10/16 02:59:08;;;;;;;11.35;2.45;;;9.90;99.90;;;;;;5019779;28;20092;-64
2021/10/16 03:01:33;;;;;;;9.15;2.03;;;9.90;99.90;;;;;;5019913;28;20477;-62
2021/10/16 03:04:00;;;;;;;7.30;2.33;;;9.80;99.90;;;;;;5018403;28;20121;-62
2021/10/16 03:06:25;;;;;;;6.97;2.40;;;9.80;99.90;;;;;;5016801;28;20029;-62
2021/10/16 03:08:51;;;;;;;10.35;2.55;;;9.80;99.90;;;;;;5020744;28;20092;-62
2021/10/16 03:11:17;;;;;;;9.48;2.28;;;9.90;99.90;;;;;;5021393;28;20509;-63
2021/10/16 03:13:42;;;;;;;7.53;2.28;;;9.80;99.90;;;;;;5020754;28;20122;-64
2021/10/16 03:16:08;;;;;;;9.52;2.25;;;9.80;99.90;;;;;;5002027;28;20136;-63
2021/10/16 03:18:34;;;;;;;19.70;3.95;;;9.80;99.90;;;;;;5019104;28;20409;-62
2021/10/16 03:21:00;;;;;;;6.55;1.95;;;9.80;99.90;;;;;;5018196;28;20044;-65
2021/10/16 03:23:26;;;;;;;10.93;3.15;;;9.90;99.90;;;;;;4973705;28;20502;-62
2021/10/16 03:25:51;;;;;;;13.18;2.38;;;9.80;99.90;;;;;;5007764;28;20038;-63
2021/10/16 03:28:17;;;;;;;11.77;1.90;;;9.80;99.90;;;;;;4993586;28;20037;-62
2021/10/16 03:30:43;;;;;;;8.00;1.65;;;9.70;99.90;;;;;;4976028;28;20037;-63
2021/10/16 03:33:09;;;;;;;14.50;3.30;;;9.80;99.90;;;;;;5020876;28;20030;-64
2021/10/16 03:35:35;;;;;;;10.20;2.67;;;9.70;99.90;;;;;;5018527;28;20140;-62
2021/10/16 03:38:00;;;;;;;11.38;2.65;;;9.70;99.90;;;;;;4975166;28;20056;-62
2021/10/16 03:40:27;;;;;;;5.55;2.22;;;9.70;99.90;;;;;;4993483;28;20477;-63
2021/10/16 03:42:52;;;;;;;10.00;2.25;;;9.70;99.90;;;;;;5017046;28;20042;-62
2021/10/16 03:45:20;;;;;;;7.63;2.22;;;9.60;99.90;;;;;;5020602;28;20032;-64
2021/10/16 03:47:46;;;;;;;9.80;2.25;;;9.60;99.90;;;;;;4991067;28;20401;-63
2021/10/16 03:50:11;;;;;;;9.40;2.45;;;9.60;99.90;;;;;;5019835;28;20030;-63
2021/10/16 03:52:37;;;;;;;7.07;2.40;;;9.50;99.90;;;;;;5020052;28;20049;-64
2021/10/16 03:55:03;;;;;;;8.05;2.25;;;9.50;99.90;;;;;;5023411;28;20040;-62
2021/10/16 03:57:28;;;;;;;9.75;2.70;;;9.50;99.90;;;;;;4993964;28;20103;-63
2021/10/16 03:59:54;;;;;;;13.88;2.60;;;9.40;99.90;;;;;;5016929;28;20061;-62
2021/10/16 04:02:19;;;;;;;8.77;2.13;;;9.40;99.90;;;;;;5020447;28;20029;-63
2021/10/16 04:04:46;;;;;;;10.63;2.72;;;9.40;99.90;;;;;;5016472;28;20026;-62
2021/10/16 04:07:11;;;;;;;8.70;2.65;;;9.40;99.90;;;;;;5020392;28;20053;-64
2021/10/16 04:09:37;;;;;;;12.43;2.63;;;9.40;99.90;;;;;;4993788;28;20489;-63
2021/10/16 04:12:03;;;;;;;12.05;2.35;;;9.40;99.90;;;;;;5019702;28;20025;-63
2021/10/16 04:14:28;;;;;;;12.20;2.03;;;9.40;99.90;;;;;;5019909;28;20649;-64
2021/10/16 04:16:54;;;;;;;6.85;1.90;;;9.40;99.90;;;;;;5018449;28;20033;-64
2021/10/16 04:19:19;;;;;;;8.00;2.58;;;9.40;99.90;;;;;;5019380;28;20026;-63
2021/10/16 04:21:45;;;;;;;6.70;2.00;;;9.40;99.90;;;;;;5020339;28;20065;-63
2021/10/16 04:24:11;;;;;;;8.75;2.65;;;9.40;99.90;;;;;;5023373;28;20037;-63
2021/10/16 04:26:36;;;;;;;11.38;2.58;;;9.40;99.90;;;;;;5021262;28;20048;-63
2021/10/16 04:29:03;;;;;;;14.48;2.58;;;9.50;99.90;;;;;;5023810;28;20040;-63
2021/10/16 04:31:29;;;;;;;16.00;2.70;;;9.50;99.90;;;;;;5022223;28;20033;-62
2021/10/16 04:33:54;;;;;;;8.25;2.28;;;9.50;99.90;;;;;;5021281;28;20030;-63
2021/10/16 04:36:20;;;;;;;12.02;2.08;;;9.50;99.90;;;;;;5021960;28;20034;-62
2021/10/16 04:38:48;;;;;;;7.22;1.85;;;9.50;99.90;;;;;;5019677;28;20037;-64
2021/10/16 04:41:15;;;;;;;9.32;2.17;;;9.50;99.90;;;;;;5019715;28;20445;-62
2021/10/16 04:43:41;;;;;;;9.43;1.90;;;9.50;99.90;;;;;;5019692;28;20076;-62
2021/10/16 04:46:09;;;;;;;5.45;1.90;;;9.50;99.90;;;;;;5026843;28;20497;-63
2021/10/16 04:48:37;;;;;;;10.45;1.88;;;9.50;99.90;;;;;;5026369;28;20378;-64
2021/10/16 04:51:02;;;;;;;6.65;2.00;;;9.50;99.90;;;;;;5022124;28;20045;-63
2021/10/16 04:53:28;;;;;;;9.32;1.75;;;9.50;99.90;;;;;;5029776;28;20373;-63
2021/10/16 04:55:54;;;;;;;7.35;2.63;;;9.50;99.90;;;;;;5024215;28;20481;-62
2021/10/16 04:58:19;;;;;;;7.28;2.05;;;9.60;99.90;;;;;;5020108;28;20168;-64
2021/10/16 05:00:45;;;;;;;9.82;1.95;;;9.60;99.90;;;;;;5022226;28;20037;-64
2021/10/16 05:03:11;;;;;;;10.38;2.70;;;9.60;99.90;;;;;;5020235;28;20061;-65
2021/10/16 05:05:36;;;;;;;11.57;2.30;;;9.60;99.90;;;;;;5022331;28;20490;-69
2021/10/16 05:08:02;;;;;;;11.20;1.73;;;9.60;99.90;;;;;;5020583;28;20120;-63
2021/10/16 05:10:28;;;;;;;17.60;2.17;;;9.60;99.90;;;;;;5019918;28;20116;-65
2021/10/16 05:12:53;;;;;;;10.93;2.92;;;9.60;99.90;;;;;;5020599;28;20049;-62
2021/10/16 05:15:19;;;;;;;12.55;2.10;;;9.60;99.90;;;;;;5022627;28;20032;-64
2021/10/16 05:17:44;;;;;;;13.30;1.75;;;9.60;99.90;;;;;;5018510;28;20084;-62
2021/10/16 05:20:11;;;;;;;7.13;1.85;;;9.50;99.90;;;;;;5020593;28;20025;-65
2021/10/16 05:22:36;;;;;;;9.70;1.40;;;9.60;99.90;;;;;;5020768;28;20083;-63
2021/10/16 05:25:03;;;;;;;6.43;2.05;;;9.60;99.90;;;;;;5021874;28;20446;-64
2021/10/16 05:27:28;;;;;;;10.27;2.08;;;9.50;99.90;;;;;;5018013;28;20385;-62
2021/10/16 05:29:54;;;;;;;6.35;1.52;;;9.60;99.90;;;;;;5017181;28;20037;-63
2021/10/16 05:32:19;;;;;;;8.68;2.20;;;9.60;99.90;;;;;;4999629;28;20041;-63
2021/10/16 05:34:45;;;;;;;12.02;2.15;;;9.60;99.90;;;;;;4992975;28;20049;-63
2021/10/16 05:37:11;;;;;;;10.68;1.65;;;9.50;99.90;;;;;;4999980;28;20425;-64
2021/10/16 05:39:37;;;;;;;10.60;2.35;;;9.60;99.90;;;;;;4967639;28;20556;-68
2021/10/16 05:42:03;;;;;;;10.07;2.53;;;9.50;99.90;;;;;;4944997;28;20037;-63
2021/10/16 05:44:28;;;;;;;5.25;1.88;;;9.50;99.90;;;;;;5021410;28;20375;-65
2021/10/16 05:46:54;;;;;;;6.65;2.80;;;9.50;99.90;;;;;;5018603;28;20037;-63
2021/10/16 05:49:20;;;;;;;8.40;1.63;;;9.40;99.90;;;;;;5016867;28;20033;-63
2021/10/16 05:51:45;;;;;;;12.60;2.22;;;9.40;99.90;;;;;;5015531;28;20038;-63
2021/10/16 05:54:11;;;;;;;13.30;2.70;;;9.40;99.90;;;;;;4992843;28;20547;-64
2021/10/16 05:56:37;;;;;;;5.43;1.95;;;9.40;99.90;;;;;;5018819;28;20045;-64
2021/10/16 05:59:02;;;;;;;8.43;1.88;;;9.40;99.90;;;;;;4995891;28;20021;-64
2021/10/16 06:01:28;;;;;;;8.55;2.05;;;9.40;99.90;;;;;;5020018;28;20083;-63
2021/10/16 06:03:53;;;;;;;9.80;2.22;;;9.40;99.90;;;;;;5019916;28;20041;-64
2021/10/16 06:06:19;;;;;;;15.48;3.40;;;9.40;99.90;;;;;;4998655;28;20116;-61
2021/10/16 06:08:45;;;;;;;7.07;1.75;;;9.40;99.90;;;;;;5018085;28;20058;-63
2021/10/16 06:11:10;;;;;;;9.05;2.20;;;9.40;99.90;;;;;;4994194;28;20151;-64
2021/10/16 06:13:36;;;;;;;25.30;2.67;;;9.50;99.90;;;;;;4994539;28;20145;-64
2021/10/16 06:16:02;;;;;;;9.30;1.92;;;9.50;99.90;;;;;;5013788;28;20033;-63
2021/10/16 06:18:27;;;;;;;8.93;1.90;;;9.50;99.90;;;;;;4995282;28;20034;-64
2021/10/16 06:20:53;;;;;;;9.27;1.70;;;9.50;99.90;;;;;;4988788;28;20096;-65
2021/10/16 06:23:19;;;;;;;4.40;1.63;;;9.50;99.90;;;;;;4994170;28;20033;-63
2021/10/16 06:25:44;;;;;;;7.68;1.75;;;9.50;99.90;;;;;;5018305;28;20486;-63
2021/10/16 06:28:16;;;;;;;6.03;1.33;;;9.60;99.90;;;;;;4994333;28;20125;-65
2021/10/16 06:30:42;;;;;;;8.18;1.77;;;9.60;99.90;;;;;;4994895;28;20038;-64
2021/10/16 06:33:08;;;;;;;9.52;2.00;;;9.60;99.90;;;;;;4998136;28;20045;-64
2021/10/16 06:35:37;;;;;;;5.65;1.38;;;9.70;99.90;;;;;;4970336;28;20382;-62
2021/10/16 06:38:03;;;;;;;8.82;1.35;;;9.70;99.90;;;;;;4992308;28;20121;-63
2021/10/16 06:40:29;;;;;;;8.45;1.73;;;9.60;99.90;;;;;;5017823;28;20083;-62
2021/10/16 06:42:55;;;;;;;7.22;1.40;;;9.60;99.90;;;;;;4998312;28;20060;-64
2021/10/16 06:45:20;;;;;;;6.28;1.85;;;9.60;99.90;;;;;;5019931;28;20052;-63
2021/10/16 06:47:46;;;;;;;13.73;2.45;;;9.60;99.90;;;;;;5020846;28;20037;-62
2021/10/16 06:50:11;;;;;;;7.28;2.20;;;9.60;99.90;;;;;;4993202;28;20569;-63
2021/10/16 06:52:37;;;;;;;8.00;1.48;;;9.60;99.90;;;;;;5020895;28;20082;-64
2021/10/16 06:55:03;;;;;;;6.13;2.15;;;9.60;99.90;;;;;;5020389;28;20030;-62
2021/10/16 06:57:29;;;;;;;8.88;1.90;;;9.70;99.90;;;;;;5020899;28;20042;-64
2021/10/16 06:59:54;;;;;;;6.63;2.03;;;9.70;99.90;;;;;;5019215;28;20069;-63
2021/10/16 07:02:20;;;;;;;7.18;1.45;;;9.80;99.90;;;;;;5021755;28;20048;-63
2021/10/16 07:04:45;;;;;;;8.23;1.98;;;9.80;99.90;;;;;;5018872;28;20059;-63
2021/10/16 07:07:11;;;;;;;9.10;1.77;;;9.90;99.90;;;;;;5017684;28;20029;-63
2021/10/16 07:09:37;;;;;;;11.57;2.08;;;10.00;99.90;;;;;;5023371;28;20018;-63
2021/10/16 07:12:03;;;;;;;11.60;1.52;;;10.00;99.90;;;;;;5019212;28;20506;-63
2021/10/16 07:14:28;;;;;;;6.28;1.45;;;10.10;99.90;;;;;;5020529;28;20060;-62
2021/10/16 07:16:54;;;;;;;10.55;2.05;;;10.20;99.90;;;;;;5023204;28;20433;-64
2021/10/16 07:19:20;;;;;;;12.25;2.17;;;10.20;99.90;;;;;;5017589;28;20040;-62
2021/10/16 07:21:46;;;;;;;5.05;1.35;;;10.20;99.90;;;;;;5017093;28;20054;-64
2021/10/16 07:24:12;;;;;;;7.07;1.33;;;10.30;99.90;;;;;;5020016;28;20033;-62
2021/10/16 07:26:39;;;;;;;8.10;1.10;;;10.30;99.90;;;;;;5020421;28;20091;-63
2021/10/16 07:29:05;;;;;;;8.75;1.35;;;10.30;99.90;;;;;;5016820;28;20046;-63
2021/10/16 07:31:31;;;;;;;12.27;1.77;;;10.40;99.90;;;;;;5020979;28;20065;-63
2021/10/16 07:33:59;;;;;;;10.45;2.03;;;10.50;99.90;;;;;;5017135;28;20076;-63
2021/10/16 07:36:28;;;;;;;10.25;1.48;;;10.50;99.90;;;;;;5002613;28;20116;-64
2021/10/16 07:38:53;;;;;;;14.07;2.25;;;10.50;99.90;;;;;;5017719;28;20041;-62
2021/10/16 07:41:19;;;;;;;8.23;1.42;;;10.60;99.90;;;;;;5019095;28;20121;-62
2021/10/16 07:43:45;;;;;;;9.23;1.58;;;10.60;99.90;;;;;;5018514;28;20104;-64
2021/10/16 07:46:10;;;;;;;13.27;2.30;;;10.60;99.90;;;;;;5018617;28;20038;-62
2021/10/16 07:48:36;;;;;;;13.70;1.35;;;10.70;99.90;;;;;;5018755;28;20044;-63
2021/10/16 07:51:01;;;;;;;8.90;1.60;;;10.70;99.90;;;;;;5019362;28;20585;-62
2021/10/16 07:53:27;;;;;;;5.47;1.23;;;10.70;99.90;;;;;;5017906;28;20033;-65
2021/10/16 07:55:53;;;;;;;5.55;1.23;;;10.80;99.90;;;;;;5006129;28;20125;-65
2021/10/16 07:58:19;;;;;;;7.75;1.58;;;10.90;99.90;;;;;;5021835;28;20133;-63
2021/10/16 08:00:45;;;;;;;15.05;2.05;;;11.00;99.90;;;;;;4998016;28;20033;-62
2021/10/16 08:03:11;;;;;;;7.65;1.85;;;10.90;99.90;;;;;;5020469;28;20083;-63
2021/10/16 08:05:36;;;;;;;7.60;2.03;;;11.00;99.90;;;;;;4999940;28;20456;-64
2021/10/16 08:08:02;;;;;;;8.40;1.55;;;11.00;99.90;;;;;;5020242;28;20713;-64
2021/10/16 08:10:28;;;;;;;12.13;2.25;;;11.10;99.90;;;;;;4992529;28;20066;-63
2021/10/16 08:12:53;;;;;;;7.93;1.50;;;11.00;99.90;;;;;;4988368;28;20124;-62
2021/10/16 08:15:19;;;;;;;13.48;1.40;;;11.10;99.90;;;;;;5021409;28;20030;-63
2021/10/16 08:17:44;;;;;;;6.95;2.17;;;11.10;99.90;;;;;;4995408;28;20116;-63
2021/10/16 08:20:11;;;;;;;10.23;1.25;;;11.20;99.90;;;;;;5019150;28;20128;-62
2021/10/16 08:22:41;;;;;;;5.65;1.20;;;11.20;99.90;;;;;;4992103;28;20512;-63
2021/10/16 08:25:08;;;;;;;9.13;1.98;;;11.30;99.90;;;;;;4996614;28;20116;-62
2021/10/16 08:27:33;;;;;;;6.25;1.10;;;11.30;99.90;;;;;;5005118;28;20029;-63
2021/10/16 08:29:59;;;;;;;5.97;1.23;;;11.40;99.90;;;;;;5000700;28;20041;-64
2021/10/16 08:32:25;;;;;;;11.23;1.63;;;11.40;99.90;;;;;;4976933;28;20053;-62
2021/10/16 08:34:50;;;;;;;9.95;1.20;;;11.40;99.90;;;;;;5003534;28;20036;-61
2021/10/16 08:37:16;;;;;;;6.18;1.00;;;11.50;99.90;;;;;;5021006;28;20030;-63
2021/10/16 08:39:41;;;;;;;10.82;1.33;;;11.40;99.90;;;;;;5022413;28;20064;-65
2021/10/16 08:42:07;;;;;;;6.47;1.35;;;11.50;99.90;;;;;;5020113;28;20036;-64
2021/10/16 08:44:34;;;;;;;17.08;1.55;;;11.70;99.90;;;;;;4998903;28;20033;-64
2021/10/16 08:47:00;;;;;;;9.75;2.05;;;11.80;99.90;;;;;;5023549;28;20030;-63
2021/10/16 08:49:31;;;;;;;8.82;2.17;;;11.90;99.90;;;;;;5022658;28;20489;-63
2021/10/16 08:51:57;;;;;;;10.93;2.72;;;12.00;99.90;;;;;;5025762;28;20029;-62
2021/10/16 08:54:23;;;;;;;6.57;1.65;;;12.20;99.90;;;;;;5022733;28;20061;-62
2021/10/16 08:56:48;;;;;;;7.65;1.65;;;12.20;99.90;;;;;;5022134;28;20057;-65
2021/10/16 08:59:14;;;;;;;12.15;1.60;;;12.40;99.90;;;;;;5023736;28;20394;-65
2021/10/16 09:02:03;;;;;;;11.77;1.50;;;12.50;99.90;;;;;;5010257;28;20026;-64
2021/10/16 09:04:30;;;;;;;7.35;1.40;;;12.60;99.90;;;;;;5021192;28;20490;-63
2021/10/16 09:06:55;;;;;;;7.65;1.70;;;12.60;99.90;;;;;;5020803;28;20033;-62
2021/10/16 09:09:29;;;;;;;7.20;1.98;;;12.60;99.90;;;;;;5025374;28;20100;-62
2021/10/16 09:11:55;;;;;;;9.80;1.63;;;12.60;99.90;;;;;;5029004;28;20223;-65
2021/10/16 09:14:28;;;;;;;15.93;1.75;;;12.70;99.90;;;;;;5021986;28;20042;-65
2021/10/16 09:17:01;;;;;;;10.18;1.65;;;12.70;99.90;;;;;;5026664;28;20036;-64
2021/10/16 09:19:32;;;;;;;8.93;1.38;;;12.80;99.90;;;;;;5026182;28;20040;-62
2021/10/16 09:22:03;;;;;;;13.73;2.03;;;12.80;99.90;;;;;;5024338;28;20401;-63
2021/10/16 09:24:34;;;;;;;6.47;1.17;;;12.80;99.90;;;;;;5019370;28;20037;-64
2021/10/16 09:27:03;;;;;;;;;;;12.80;99.90;;;;;;5019163;28;20045;-64
2021/10/16 09:29:31;;;;;;;6.20;2.20;;;12.80;99.90;;;;;;5019434;28;20303;-64
2021/10/16 09:32:01;;;;;;;10.75;1.55;;;12.90;99.90;;;;;;5021117;28;20040;-65
2021/10/16 09:34:33;;;;;;;13.25;1.70;;;12.90;99.90;;;;;;5017466;28;20046;-64
2021/10/16 09:37:16;;;;;;;10.60;2.45;;;12.90;99.90;;;;;;5017472;28;20026;-63
2021/10/16 09:39:49;;;;;;;8.85;1.77;;;13.00;99.90;;;;;;5014955;28;20038;-64
2021/10/16 09:42:17;;;;;;;9.27;2.00;;;12.90;99.90;;;;;;5018811;28;20060;-65
2021/10/16 09:44:44;;;;;;;10.50;1.50;;;12.90;99.90;;;;;;4986856;28;20046;-63
2021/10/16 09:47:12;;;;;;;12.15;2.00;;;12.90;99.90;;;;;;4977249;28;20033;-62
2021/10/16 09:49:41;;;;;;;10.82;1.27;;;12.90;99.90;;;;;;4988089;28;20033;-62
2021/10/16 09:52:10;;;;;;;8.75;1.45;;;12.80;99.90;;;;;;5020895;28;20115;-64
2021/10/16 09:54:36;;;;;;;9.65;1.55;;;12.80;99.90;;;;;;4994062;28;20057;-64
2021/10/16 09:57:05;;;;;;;3.55;1.05;;;12.80;99.90;;;;;;4995803;28;20033;-63
2021/10/16 09:59:32;;;;;;;6.78;1.50;;;12.80;99.90;;;;;;5018397;28;20068;-63
2021/10/16 10:02:00;;;;;;;7.88;2.25;;;12.80;99.90;;;;;;4996316;28;20052;-63
2021/10/16 10:04:26;;;;;;;5.07;1.35;;;12.70;99.90;;;;;;5000868;28;20122;-62
2021/10/16 10:06:56;;;;;;;8.20;1.65;;;12.80;99.90;;;;;;5021883;28;20029;-63
2021/10/16 10:09:22;;;;;;;12.27;2.08;;;12.80;99.90;;;;;;4967424;28;20034;-63
2021/10/16 10:11:52;;;;;;;11.55;1.50;;;12.80;99.90;;;;;;4995111;28;20577;-63
2021/10/16 10:14:19;;;;;;;11.65;1.45;;;12.80;99.90;;;;;;4961603;28;20118;-62
2021/10/16 10:16:49;;;;;;;5.47;1.20;;;12.80;99.90;;;;;;5020136;28;20061;-63
2021/10/16 10:19:16;;;;;;;9.27;1.77;;;12.80;99.90;;;;;;5014446;28;20040;-63
2021/10/16 10:21:42;;;;;;;7.53;1.80;;;12.90;99.90;;;;;;5005466;28;20045;-64
2021/10/16 10:24:10;;;;;;;10.20;2.10;;;12.90;99.90;;;;;;4986543;28;20033;-62
2021/10/16 10:26:42;;;;;;;14.38;1.85;;;12.90;99.90;;;;;;5021098;28;20040;-63
2021/10/16 10:29:13;;;;;;;9.43;1.45;;;12.90;99.90;;;;;;5009779;28;20112;-62
2021/10/16 10:31:58;;;;;;;14.30;1.83;;;13.00;99.90;;;;;;4998077;28;20036;-63
2021/10/16 10:34:30;;;;;;;13.63;2.58;;;13.00;99.90;;;;;;4968968;28;20034;-63
2021/10/16 10:37:05;;;;;;;20.48;2.17;;;13.00;99.90;;;;;;5025380;28;20116;-62
2021/10/16 10:39:33;;;;;;;5.68;1.25;;;13.10;99.90;;;;;;5018255;28;20025;-62
2021/10/16 10:42:22;;;;;;;8.90;1.30;;;13.10;99.90;;;;;;5020019;28;20064;-62
2021/10/16 10:44:53;;;;;;;5.97;1.10;;;13.30;99.90;;;;;;4991897;28;20053;-63
2021/10/16 10:47:35;;;;;;;8.15;2.53;;;13.30;99.90;;;;;;5019331;28;20494;-64
2021/10/16 10:50:09;;;;;;;13.55;2.08;;;13.30;99.90;;;;;;5017557;28;20491;-63
2021/10/16 10:53:06;;;;;;;6.65;1.90;;;13.40;99.90;;;;;;4994235;28;20140;-62
2021/10/16 10:55:54;;;;;;;15.27;2.08;;;13.50;99.90;;;;;;5017381;28;20168;-63
2021/10/16 10:58:22;;;;;;;6.93;1.27;;;13.60;99.90;;;;;;5016365;28;20471;-63
2021/10/16 11:00:48;;;;;;;11.55;1.52;;;13.60;99.90;;;;;;5018492;28;20026;-62
2021/10/16 11:03:32;;;;;;;4.65;1.35;;;13.60;99.90;;;;;;5019729;28;20033;-62
2021/10/16 11:06:10;;;;;;;11.30;1.58;;;13.70;99.90;;;;;;5017077;28;20037;-63
2021/10/16 11:08:37;;;;;;;5.55;1.27;;;13.70;99.90;;;;;;5018303;28;20036;-63
2021/10/16 11:11:03;;;;;;;11.82;1.48;;;13.80;99.90;;;;;;5017499;28;20034;-64
2021/10/16 11:13:32;;;;;;;9.77;1.75;;;13.80;99.90;;;;;;4998335;28;20052;-65
2021/10/16 11:16:00;;;;;;;7.78;1.23;;;13.80;99.90;;;;;;5021154;28;20053;-62
2021/10/16 11:18:26;;;;;;;7.15;1.65;;;13.70;99.90;;;;;;5001013;28;20030;-63
2021/10/16 11:20:53;;;;;;;7.63;1.40;;;13.70;99.90;;;;;;5018368;28;20398;-62
2021/10/16 11:23:21;;;;;;;6.35;2.08;;;13.70;99.90;;;;;;5017309;28;20087;-62
2021/10/16 11:25:55;;;;;;;11.45;1.10;;;13.80;99.90;;;;;;5020049;28;20033;-63
2021/10/16 11:28:21;;;;;;;6.03;2.60;;;13.70;99.90;;;;;;5019739;28;20048;-62
2021/10/16 11:30:48;;;;;;;8.38;1.77;;;13.80;99.90;;;;;;5016629;28;20125;-63
2021/10/16 11:33:16;;;;;;;11.80;2.95;;;13.80;99.90;;;;;;5020419;28;20417;-62
2021/10/16 11:35:44;;;;;;;10.10;1.60;;;13.70;99.90;;;;;;5017144;28;20677;-62
2021/10/16 11:38:12;;;;;;;12.65;1.90;;;13.80;99.90;;;;;;5019645;28;20136;-63
2021/10/16 11:40:38;;;;;;;5.85;1.70;;;13.90;99.90;;;;;;5020370;28;20564;-62
2021/10/16 11:43:10;;;;;;;5.35;1.35;;;14.00;99.90;;;;;;5018645;28;20397;-63
2021/10/16 11:45:37;;;;;;;4.10;1.10;;;13.90;99.90;;;;;;5001339;28;20069;-63
2021/10/16 11:48:05;;;;;;;6.15;1.20;;;13.90;99.90;;;;;;5020068;28;20076;-63
2021/10/16 11:50:36;;;;;;;11.50;1.70;;;13.80;99.90;;;;;;5019410;28;20029;-62
2021/10/16 11:53:06;;;;;;;5.13;1.38;;;13.50;99.90;;;;;;5000720;28;20038;-63
2021/10/16 11:55:32;;;;;;;5.97;1.55;;;13.40;99.90;;;;;;5001079;28;20120;-62
2021/10/16 11:58:05;;;;;;;12.55;2.03;;;13.40;99.90;;;;;;4999691;28;20136;-65
2021/10/16 12:00:32;;;;;;;13.50;2.03;;;13.30;99.90;;;;;;5018687;28;20029;-63
2021/10/16 12:02:58;;;;;;;13.00;1.60;;;13.20;99.90;;;;;;5017590;28;20057;-64
2021/10/16 12:05:27;;;;;;;9.85;1.70;;;13.20;99.90;;;;;;5019664;28;20026;-62
2021/10/16 12:07:54;;;;;;;5.57;1.58;;;13.30;99.90;;;;;;5017029;28;20520;-63
2021/10/16 12:10:24;;;;;;;9.27;1.20;;;13.30;99.90;;;;;;5019946;28;20026;-63
2021/10/16 12:12:58;;;;;;;10.18;1.90;;;13.30;99.90;;;;;;5014569;28;20100;-62
2021/10/16 12:15:33;;;;;;;4.85;1.70;;;13.40;99.90;;;;;;5018093;28;20041;-64
2021/10/16 12:17:59;;;;;;;6.07;1.88;;;13.50;99.90;;;;;;5016684;28;20034;-65
2021/10/16 12:20:25;;;;;;;18.63;2.45;;;13.70;99.90;;;;;;5019663;28;20553;-64
2021/10/16 12:22:58;;;;;;;10.77;2.53;;;13.80;99.90;;;;;;5001763;28;20042;-64
2021/10/16 12:25:24;;;;;;;8.73;2.40;;;14.00;99.90;;;;;;5020255;28;20038;-64
2021/10/16 12:28:03;;;;;;;9.95;2.25;;;14.00;99.90;;;;;;5020502;28;20037;-62
2021/10/16 12:30:29;;;;;;;10.23;2.22;;;14.10;99.90;;;;;;5019886;28;20037;-62
2021/10/16 12:33:06;;;;;;;9.82;2.38;;;14.10;99.90;;;;;;5018625;28;20034;-63
2021/10/16 12:35:33;;;;;;;12.73;2.22;;;14.20;99.90;;;;;;5023857;28;20057;-62
2021/10/16 12:38:00;;;;;;;15.30;2.30;;;14.30;99.90;;;;;;5022353;28;20033;-63
2021/10/16 12:40:39;;;;;;;9.90;2.45;;;14.30;99.90;;;;;;5019455;28;20149;-65
2021/10/16 12:43:06;;;;;;;6.15;1.75;;;14.40;99.90;;;;;;5002982;28;20046;-63
2021/10/16 12:45:39;;;;;;;9.88;1.40;;;14.50;99.90;;;;;;4994770;28;20033;-62
2021/10/16 12:48:30;;;;;;;10.23;1.15;;;14.50;99.90;;;;;;4994810;28;20041;-62
2021/10/16 12:50:59;;;;;;;10.00;1.42;;;14.60;99.90;;;;;;5006340;28;20045;-61